createdAt,value
2022-12-15T00:01:40.308Z,76.03
2022-12-15T00:04:00.541Z,75.89
2022-12-15T00:06:20.778Z,76.38
2022-12-15T00:08:41.317Z,75.75
2022-12-15T00:11:03.005Z,75.74
2022-12-15T00:13:29.869Z,76.05
2022-12-15T00:15:50.621Z,75.79
2022-12-15T00:18:10.650Z,75.94
2022-12-15T00:20:31.046Z,76.63
2022-12-15T00:22:51.415Z,76.33
2022-12-15T00:25:11.786Z,76.28
2022-12-15T00:27:33.449Z,76.23
2022-12-15T00:29:53.671Z,76.34
2022-12-15T00:32:13.627Z,76.30
2022-12-15T00:34:33.818Z,76.09
2022-12-15T00:36:53.963Z,76.17
2022-12-15T00:39:01.900Z,75.99
2022-12-15T00:41:06.631Z,76.58
2022-12-15T00:43:12.157Z,76.86
2022-12-15T00:45:14.983Z,75.93
2022-12-15T00:47:16.630Z,76.34
2022-12-15T00:49:36.643Z,76.30
2022-12-15T00:51:56.742Z,76.49
2022-12-15T00:54:18.247Z,76.45
2022-12-15T00:56:38.746Z,76.44
2022-12-15T00:59:00.349Z,76.45
2022-12-15T01:01:25.250Z,76.43
2022-12-15T01:03:45.734Z,76.31
2022-12-15T01:06:06.154Z,76.55
2022-12-15T01:08:26.487Z,76.85
2022-12-15T01:10:46.673Z,76.78
2022-12-15T01:13:06.755Z,76.71
2022-12-15T01:15:28.491Z,76.76
2022-12-15T01:17:48.774Z,76.88
2022-12-15T01:20:09.238Z,77.06
2022-12-15T01:22:11.851Z,76.66
2022-12-15T01:24:14.496Z,77.18
2022-12-15T01:26:17.155Z,77.04
2022-12-15T01:28:20.512Z,77.01
2022-12-15T01:30:26.581Z,76.82
2022-12-15T01:32:29.549Z,76.45
2022-12-15T01:34:32.172Z,76.79
2022-12-15T01:36:34.844Z,76.17
2022-12-15T01:38:37.497Z,76.79
2022-12-15T01:40:45.353Z,76.27
2022-12-15T01:42:48.056Z,76.30
2022-12-15T01:44:52.384Z,76.39
2022-12-15T01:46:57.377Z,76.99
2022-12-15T01:49:11.330Z,76.31
2022-12-15T01:51:19.053Z,76.51
2022-12-15T01:53:21.698Z,76.73
2022-12-15T01:55:28.844Z,76.48
2022-12-15T01:57:33.656Z,76.37
2022-12-15T01:59:39.940Z,76.59
2022-12-15T02:01:42.821Z,76.17
2022-12-15T02:03:48.568Z,76.30
2022-12-15T02:05:51.837Z,76.71
2022-12-15T02:07:54.538Z,76.81
2022-12-15T02:10:01.164Z,77.07
2022-12-15T02:12:15.125Z,76.56
2022-12-15T02:14:26.719Z,76.95
2022-12-15T02:16:39.938Z,77.06
2022-12-15T02:18:53.208Z,76.56
2022-12-15T02:21:01.541Z,76.75
2022-12-15T02:23:33.618Z,76.85
2022-12-15T02:25:54.566Z,76.40
2022-12-15T02:28:03.034Z,76.34
2022-12-15T02:30:26.279Z,76.94
2022-12-15T02:32:33.557Z,76.78
2022-12-15T02:34:43.501Z,76.52
2022-12-15T02:36:49.976Z,76.46
2022-12-15T02:38:52.763Z,76.35
2022-12-15T02:40:59.125Z,76.91
2022-12-15T02:43:05.877Z,76.40
2022-12-15T02:45:13.703Z,76.87
2022-12-15T02:47:28.186Z,77.03
2022-12-15T02:49:37.254Z,76.79
2022-12-15T02:51:51.065Z,76.44
2022-12-15T02:54:15.470Z,76.99
2022-12-15T02:56:23.390Z,76.61
2022-12-15T02:58:33.037Z,77.34
2022-12-15T03:00:40.590Z,76.89
2022-12-15T03:02:47.358Z,76.46
2022-12-15T03:04:50.300Z,77.02
2022-12-15T03:07:00.797Z,76.63
2022-12-15T03:09:04.132Z,76.68
2022-12-15T03:11:06.898Z,76.69
2022-12-15T03:13:09.473Z,76.94
2022-12-15T03:15:13.105Z,76.53
2022-12-15T03:17:17.233Z,76.55
2022-12-15T03:19:19.867Z,76.17
2022-12-15T03:21:22.477Z,76.50
2022-12-15T03:23:25.064Z,76.23
2022-12-15T03:25:27.671Z,76.16
2022-12-15T03:27:30.544Z,76.40
2022-12-15T03:29:33.182Z,76.56
2022-12-15T03:31:35.822Z,76.27
2022-12-15T03:33:39.807Z,76.84
2022-12-15T03:35:42.472Z,76.88
2022-12-15T03:37:45.060Z,76.69
2022-12-15T03:39:47.792Z,76.32
2022-12-15T03:41:50.442Z,76.42
2022-12-15T03:43:53.047Z,76.69
2022-12-15T03:45:55.678Z,76.17
2022-12-15T03:47:58.711Z,76.74
2022-12-15T03:50:02.667Z,75.49
2022-12-15T03:52:05.402Z,75.92
2022-12-15T03:54:08.912Z,76.19
2022-12-15T03:56:11.549Z,76.16
2022-12-15T03:58:14.125Z,75.62
2022-12-15T04:00:18.555Z,76.61
2022-12-15T04:02:21.370Z,76.37
2022-12-15T04:04:24.192Z,76.11
2022-12-15T04:06:28.495Z,75.69
2022-12-15T04:08:31.090Z,75.52
2022-12-15T04:10:36.252Z,75.75
2022-12-15T04:12:39.674Z,75.46
2022-12-15T04:14:42.698Z,76.37
2022-12-15T04:16:45.326Z,75.57
2022-12-15T04:19:08.370Z,75.95
2022-12-15T04:21:10.037Z,76.14
2022-12-15T04:23:13.849Z,76.15
2022-12-15T04:25:36.019Z,75.67
2022-12-15T04:28:01.415Z,76.00
2022-12-15T04:30:22.359Z,75.93
2022-12-15T04:32:43.025Z,76.16
2022-12-15T04:35:03.343Z,75.94
2022-12-15T04:37:26.068Z,75.73
2022-12-15T04:39:48.109Z,76.21
2022-12-15T04:42:08.598Z,75.79
2022-12-15T04:44:30.322Z,76.05
2022-12-15T04:46:50.387Z,76.18
2022-12-15T04:49:10.455Z,75.55
2022-12-15T04:51:30.910Z,76.14
2022-12-15T04:53:51.054Z,75.78
2022-12-15T04:56:18.014Z,76.26
2022-12-15T04:58:38.798Z,76.09
2022-12-15T05:00:58.759Z,76.47
2022-12-15T05:03:23.059Z,76.91
2022-12-15T05:05:43.065Z,76.56
2022-12-15T05:08:03.263Z,76.34
2022-12-15T05:10:24.723Z,76.65
2022-12-15T05:12:46.273Z,76.57
2022-12-15T05:15:06.649Z,76.25
2022-12-15T05:17:26.850Z,76.47
2022-12-15T05:19:46.881Z,76.52
2022-12-15T05:22:07.179Z,76.84
2022-12-15T05:24:27.402Z,76.05
2022-12-15T05:26:52.393Z,76.79
2022-12-15T05:29:14.717Z,76.55
2022-12-15T05:31:34.969Z,76.62
2022-12-15T05:33:37.742Z,76.69
2022-12-15T05:35:40.347Z,76.39
2022-12-15T05:37:42.957Z,76.49
2022-12-15T05:39:45.550Z,76.87
2022-12-15T05:41:48.505Z,76.54
2022-12-15T05:43:51.112Z,76.12
2022-12-15T05:45:55.131Z,76.43
2022-12-15T05:47:57.861Z,76.78
2022-12-15T05:50:00.452Z,76.02
2022-12-15T05:52:03.095Z,76.62
2022-12-15T05:54:06.121Z,76.45
2022-12-15T05:56:10.590Z,76.69
2022-12-15T05:58:13.186Z,76.71
2022-12-15T06:00:16.520Z,76.30
2022-12-15T06:02:20.541Z,76.61
2022-12-15T06:04:23.320Z,76.82
2022-12-15T06:06:26.296Z,76.77
2022-12-15T06:08:31.111Z,76.84
2022-12-15T06:10:33.761Z,76.86
2022-12-15T06:12:37.484Z,76.71
2022-12-15T06:14:40.066Z,76.46
2022-12-15T06:16:50.241Z,76.32
2022-12-15T06:18:57.184Z,77.21
2022-12-15T06:21:00.766Z,76.57
2022-12-15T06:23:03.360Z,76.47
2022-12-15T06:25:07.252Z,76.86
2022-12-15T06:27:10.091Z,76.49
2022-12-15T06:29:13.946Z,76.99
2022-12-15T06:31:18.636Z,76.82
2022-12-15T06:33:22.699Z,76.49
2022-12-15T06:35:26.660Z,76.55
2022-12-15T06:37:29.276Z,76.41
2022-12-15T06:39:31.901Z,76.21
2022-12-15T06:41:34.865Z,76.28
2022-12-15T06:43:37.452Z,76.58
2022-12-15T06:45:40.055Z,76.10
2022-12-15T06:47:42.675Z,76.61
2022-12-15T06:49:45.265Z,76.75
2022-12-15T06:51:50.047Z,76.77
2022-12-15T06:53:54.119Z,76.48
2022-12-15T06:58:04.022Z,77.00
2022-12-15T07:00:07.865Z,76.95
2022-12-15T07:02:18.539Z,76.79
2022-12-15T07:04:23.768Z,76.87
2022-12-15T07:06:26.961Z,77.15
2022-12-15T07:08:35.349Z,76.25
2022-12-15T07:10:43.079Z,76.32
2022-12-15T07:12:45.686Z,76.58
2022-12-15T07:14:53.395Z,76.57
2022-12-15T07:16:56.355Z,76.03
2022-12-15T07:18:59.003Z,76.33
2022-12-15T07:21:04.398Z,76.72
2022-12-15T07:23:09.598Z,75.96
2022-12-15T07:25:13.558Z,77.00
2022-12-15T07:27:16.281Z,77.05
2022-12-15T07:29:23.302Z,76.68
2022-12-15T07:31:27.160Z,76.60
2022-12-15T07:33:30.712Z,76.84
2022-12-15T07:35:33.853Z,76.42
2022-12-15T07:37:36.969Z,76.85
2022-12-15T07:39:39.568Z,76.76
2022-12-15T07:41:43.497Z,76.63
2022-12-15T07:43:47.107Z,76.64
2022-12-15T07:45:53.319Z,76.76
2022-12-15T07:47:55.976Z,76.98
2022-12-15T07:49:58.685Z,76.82
2022-12-15T07:52:01.297Z,76.07
2022-12-15T07:54:03.951Z,76.69
2022-12-15T07:56:08.954Z,76.91
2022-12-15T07:58:13.694Z,76.84
2022-12-15T08:00:18.122Z,76.94
2022-12-15T08:02:20.881Z,76.50
2022-12-15T08:04:23.603Z,77.20
2022-12-15T08:06:26.249Z,76.72
2022-12-15T08:08:29.106Z,76.81
2022-12-15T08:10:32.534Z,76.67
2022-12-15T08:12:35.103Z,76.67
2022-12-15T08:14:39.009Z,76.29
2022-12-15T08:16:41.890Z,76.85
2022-12-15T08:18:44.525Z,76.71
2022-12-15T08:20:50.263Z,76.85
2022-12-15T08:22:53.074Z,76.30
2022-12-15T08:24:55.744Z,77.03
2022-12-15T08:26:58.500Z,76.58
2022-12-15T08:29:31.924Z,76.83
2022-12-15T08:31:28.855Z,76.89
2022-12-15T08:33:32.000Z,76.36
2022-12-15T08:35:55.630Z,76.28
2022-12-15T08:38:02.265Z,76.72
2022-12-15T08:40:08.822Z,77.04
2022-12-15T08:42:11.459Z,76.30
2022-12-15T08:44:14.134Z,76.51
2022-12-15T08:46:17.915Z,76.51
2022-12-15T08:48:23.076Z,76.80
2022-12-15T08:50:25.740Z,76.72
2022-12-15T08:52:28.564Z,76.44
2022-12-15T08:54:32.551Z,76.96
2022-12-15T08:56:37.105Z,77.20
2022-12-15T08:58:40.356Z,76.74
2022-12-15T09:00:42.981Z,76.88
2022-12-15T09:02:45.672Z,76.63
2022-12-15T09:04:50.941Z,76.52
2022-12-15T09:06:55.055Z,76.51
2022-12-15T09:09:00.140Z,77.04
2022-12-15T09:11:03.184Z,76.89
2022-12-15T09:13:05.867Z,76.89
2022-12-15T09:15:09.471Z,76.35
2022-12-15T09:17:12.678Z,76.65
2022-12-15T09:19:15.365Z,76.58
2022-12-15T09:21:22.343Z,76.58
2022-12-15T09:23:24.979Z,76.60
2022-12-15T09:25:27.571Z,76.74
2022-12-15T09:27:30.518Z,77.09
2022-12-15T09:29:33.735Z,76.50
2022-12-15T09:31:38.735Z,76.24
2022-12-15T09:33:41.669Z,76.20
2022-12-15T09:35:50.939Z,76.08
2022-12-15T09:37:54.929Z,76.76
2022-12-15T09:39:57.530Z,76.51
2022-12-15T09:42:01.510Z,76.21
2022-12-15T09:44:08.124Z,76.62
2022-12-15T09:46:21.092Z,76.18
2022-12-15T09:48:25.958Z,76.67
2022-12-15T09:50:35.043Z,77.06
2022-12-15T09:52:47.165Z,76.30
2022-12-15T09:54:51.244Z,76.24
2022-12-15T09:56:58.145Z,75.97
2022-12-15T09:59:11.226Z,75.97
2022-12-15T10:01:23.258Z,76.99
2022-12-15T10:03:45.929Z,76.32
2022-12-15T10:06:16.634Z,76.51
2022-12-15T10:08:40.743Z,76.67
2022-12-15T10:10:53.586Z,76.91
2022-12-15T10:13:03.124Z,76.14
2022-12-15T10:15:17.049Z,77.00
2022-12-15T10:17:25.546Z,76.24
2022-12-15T10:19:35.056Z,76.18
2022-12-15T10:21:37.929Z,76.60
2022-12-15T10:23:40.770Z,76.68
2022-12-15T10:25:51.535Z,76.43
2022-12-15T10:28:18.521Z,76.17
2022-12-15T10:30:21.621Z,76.64
2022-12-15T10:32:31.386Z,76.52
2022-12-15T10:34:38.089Z,76.58
2022-12-15T10:36:50.511Z,76.41
2022-12-15T10:38:53.772Z,76.62
2022-12-15T10:41:02.129Z,76.14
2022-12-15T10:43:15.430Z,76.67
2022-12-15T10:45:36.322Z,76.11
2022-12-15T10:47:38.946Z,76.92
2022-12-15T10:49:41.537Z,76.50
2022-12-15T10:51:46.372Z,76.42
2022-12-15T10:53:51.167Z,76.65
2022-12-15T10:56:02.222Z,76.83
2022-12-15T10:58:17.141Z,76.49
2022-12-15T11:00:29.566Z,75.96
2022-12-15T11:02:34.744Z,76.67
2022-12-15T11:04:37.530Z,77.09
2022-12-15T11:06:43.479Z,76.89
2022-12-15T11:08:47.653Z,77.13
2022-12-15T11:11:12.883Z,77.56
2022-12-15T11:13:18.301Z,77.25
2022-12-15T11:15:45.490Z,76.85
2022-12-15T11:17:57.243Z,76.00
2022-12-15T11:20:04.341Z,76.74
2022-12-15T11:22:13.607Z,75.87
2022-12-15T11:24:21.562Z,75.96
2022-12-15T11:26:35.167Z,76.53
2022-12-15T11:28:45.691Z,76.39
2022-12-15T11:30:55.352Z,76.39
2022-12-15T11:33:01.214Z,76.34
2022-12-15T11:35:04.286Z,76.68
2022-12-15T11:37:21.326Z,75.82
2022-12-15T11:39:42.659Z,76.35
2022-12-15T11:41:54.626Z,76.23
2022-12-15T11:44:11.577Z,76.63
2022-12-15T11:46:21.658Z,76.71
2022-12-15T11:48:33.275Z,77.03
2022-12-15T11:50:51.048Z,76.64
2022-12-15T11:53:18.386Z,76.81
2022-12-15T11:55:34.388Z,76.91
2022-12-15T11:57:54.416Z,76.65
2022-12-15T12:00:06.195Z,76.49
2022-12-15T12:02:27.554Z,76.90
2022-12-15T12:04:36.843Z,76.24
2022-12-15T12:06:49.156Z,76.83
2022-12-15T12:09:19.031Z,76.33
2022-12-15T12:11:28.958Z,76.90
2022-12-15T12:13:41.164Z,77.14
2022-12-15T12:15:51.412Z,76.57
2022-12-15T12:17:59.723Z,76.65
2022-12-15T12:20:11.582Z,76.58
2022-12-15T12:22:25.362Z,76.86
2022-12-15T12:24:34.057Z,76.20
2022-12-15T12:26:41.693Z,76.85
2022-12-15T12:31:22.465Z,76.77
2022-12-15T12:33:32.985Z,76.74
2022-12-15T12:35:43.443Z,76.85
2022-12-15T12:37:54.166Z,76.66
2022-12-15T12:40:04.007Z,77.05
2022-12-15T12:42:13.415Z,76.71
2022-12-15T12:44:27.090Z,77.05
2022-12-15T12:46:34.562Z,76.98
2022-12-15T12:48:42.324Z,76.32
2022-12-15T12:50:45.082Z,76.82
2022-12-15T12:52:55.676Z,76.26
2022-12-15T12:55:00.911Z,76.59
2022-12-15T12:57:23.888Z,76.59
2022-12-15T12:59:38.414Z,76.15
2022-12-15T13:01:42.513Z,76.57
2022-12-15T13:03:46.163Z,76.80
2022-12-15T13:05:54.511Z,77.34
2022-12-15T13:08:17.123Z,76.59
2022-12-15T13:10:21.615Z,77.08
2022-12-15T13:12:52.535Z,76.46
2022-12-15T13:14:56.437Z,76.68
2022-12-15T13:17:26.135Z,76.98
2022-12-15T13:20:02.248Z,76.68
2022-12-15T13:22:04.821Z,76.48
2022-12-15T13:24:19.033Z,77.35
2022-12-15T13:26:22.321Z,76.87
2022-12-15T13:28:40.248Z,77.26
2022-12-15T13:31:25.169Z,77.19
2022-12-15T13:33:30.781Z,77.07
2022-12-15T13:35:34.532Z,77.63
2022-12-15T13:37:49.006Z,77.11
2022-12-15T13:39:56.048Z,77.26
2022-12-15T13:42:38.864Z,77.28
2022-12-15T13:44:48.600Z,77.72
2022-12-15T13:46:54.112Z,77.24
2022-12-15T13:49:10.518Z,78.02
2022-12-15T13:51:25.471Z,77.97
2022-12-15T13:53:29.987Z,78.26
2022-12-15T13:55:37.982Z,78.20
2022-12-15T13:57:51.140Z,78.43
2022-12-15T13:59:58.496Z,78.37
2022-12-15T14:02:01.879Z,78.13
2022-12-15T14:04:08.257Z,78.19
2022-12-15T14:06:15.348Z,78.51
2022-12-15T14:08:19.022Z,78.54
2022-12-15T14:10:24.543Z,78.06
2022-12-15T14:12:27.351Z,78.10
2022-12-15T14:14:32.991Z,78.13
2022-12-15T14:16:36.280Z,77.97
2022-12-15T14:18:40.809Z,77.48
2022-12-15T14:20:44.758Z,78.18
2022-12-15T14:22:50.483Z,78.37
2022-12-15T14:24:59.148Z,77.53
2022-12-15T14:27:01.733Z,77.41
2022-12-15T14:29:06.309Z,77.43
2022-12-15T14:31:16.034Z,77.73
2022-12-15T14:33:19.910Z,77.80
2022-12-15T14:35:28.807Z,77.38
2022-12-15T14:37:33.237Z,77.86
2022-12-15T14:39:38.751Z,77.49
2022-12-15T14:41:48.951Z,77.66
2022-12-15T14:44:37.254Z,77.84
2022-12-15T14:46:23.404Z,78.27
2022-12-15T14:48:41.027Z,77.75
2022-12-15T14:50:47.007Z,77.85
2022-12-15T14:52:56.977Z,77.59
2022-12-15T14:55:01.614Z,77.42
2022-12-15T14:57:15.419Z,77.35
2022-12-15T14:59:20.806Z,77.70
2022-12-15T15:01:27.575Z,77.46
2022-12-15T15:03:11.323Z,76.11
2022-12-15T15:03:37.161Z,78.00
2022-12-15T15:05:41.657Z,77.54
2022-12-15T15:07:46.961Z,77.97
2022-12-15T15:09:51.317Z,78.04
2022-12-15T15:11:57.013Z,77.83
2022-12-15T15:14:04.137Z,78.05
2022-12-15T15:16:17.092Z,78.24
2022-12-15T15:18:25.823Z,77.61
2022-12-15T15:20:31.647Z,77.36
2022-12-15T15:22:40.807Z,78.56
2022-12-15T15:24:51.622Z,78.11
2022-12-15T15:26:55.856Z,78.26
2022-12-15T15:28:58.851Z,77.97
2022-12-15T15:31:06.748Z,77.48
2022-12-15T15:33:10.468Z,78.25
2022-12-15T15:35:13.516Z,78.18
2022-12-15T15:37:21.098Z,77.62
2022-12-15T15:39:23.759Z,77.81
2022-12-15T15:41:30.119Z,77.91
2022-12-15T15:43:34.004Z,78.04
2022-12-15T15:45:36.628Z,77.99
2022-12-15T15:47:39.885Z,77.74
2022-12-15T15:49:42.649Z,77.97
2022-12-15T15:51:47.685Z,77.70
2022-12-15T15:53:50.685Z,77.99
2022-12-15T15:55:55.381Z,78.03
2022-12-15T15:58:01.090Z,77.38
2022-12-15T16:00:16.909Z,78.29
2022-12-15T16:02:19.779Z,77.77
2022-12-15T16:04:22.659Z,77.82
2022-12-15T16:06:25.276Z,78.51
2022-12-15T16:08:32.654Z,77.87
2022-12-15T16:10:35.700Z,78.12
2022-12-15T16:12:42.840Z,77.59
2022-12-15T16:14:45.831Z,78.36
2022-12-15T16:16:53.929Z,77.76
2022-12-15T16:18:56.527Z,77.80
2022-12-15T16:20:59.309Z,77.93
2022-12-15T16:23:04.687Z,78.26
2022-12-15T16:25:12.978Z,78.22
2022-12-15T16:27:16.604Z,77.67
2022-12-15T16:29:21.752Z,77.93
2022-12-15T16:31:35.622Z,77.93
2022-12-15T16:33:43.075Z,78.08
2022-12-15T16:35:48.151Z,77.84
2022-12-15T16:37:50.985Z,78.46
2022-12-15T16:39:54.014Z,77.93
2022-12-15T16:41:57.411Z,78.39
2022-12-15T16:44:00.029Z,78.37
2022-12-15T16:46:02.910Z,78.38
2022-12-15T16:48:05.557Z,78.38
2022-12-15T16:50:12.871Z,78.79
2022-12-15T16:52:20.821Z,78.19
2022-12-15T16:54:26.540Z,77.85
2022-12-15T16:56:29.129Z,78.32
2022-12-15T16:58:33.180Z,78.28
2022-12-15T17:00:36.547Z,78.60
2022-12-15T17:02:41.944Z,78.23
2022-12-15T17:04:44.673Z,78.19
2022-12-15T17:06:48.763Z,78.31
2022-12-15T17:08:53.420Z,78.15
2022-12-15T17:10:57.157Z,78.20
2022-12-15T17:13:05.731Z,78.16
2022-12-15T17:15:18.269Z,77.83
2022-12-15T17:17:21.227Z,78.25
2022-12-15T17:19:23.787Z,77.68
2022-12-15T17:21:29.729Z,77.79
2022-12-15T17:23:35.451Z,77.77
2022-12-15T17:28:04.909Z,77.54
2022-12-15T17:30:11.635Z,78.20
2022-12-15T17:32:14.209Z,77.74
2022-12-15T17:34:27.022Z,77.62
2022-12-15T17:36:29.891Z,78.46
2022-12-15T17:38:33.884Z,78.16
2022-12-15T17:40:36.606Z,78.12
2022-12-15T17:42:39.185Z,77.74
2022-12-15T17:44:42.104Z,78.41
2022-12-15T17:46:44.706Z,77.59
2022-12-15T17:48:47.365Z,77.52
2022-12-15T17:50:52.458Z,78.13
2022-12-15T17:52:55.048Z,78.03
2022-12-15T17:54:58.952Z,77.56
2022-12-15T17:57:01.518Z,77.86
2022-12-15T17:59:05.587Z,78.00
2022-12-15T18:01:13.047Z,77.83
2022-12-15T18:03:15.845Z,77.52
2022-12-15T18:05:19.756Z,77.61
2022-12-15T18:07:24.558Z,77.81
2022-12-15T18:09:27.950Z,77.27
2022-12-15T18:11:31.892Z,76.92
2022-12-15T18:13:35.654Z,77.35
2022-12-15T18:15:38.366Z,77.05
2022-12-15T18:17:40.955Z,77.00
2022-12-15T18:19:43.558Z,77.78
2022-12-15T18:21:46.124Z,77.73
2022-12-15T18:23:48.760Z,77.17
2022-12-15T18:25:52.216Z,77.02
2022-12-15T18:27:58.389Z,77.04
2022-12-15T18:30:01.013Z,77.26
2022-12-15T18:32:06.630Z,77.13
2022-12-15T18:34:12.788Z,77.14
2022-12-15T18:36:16.223Z,76.92
2022-12-15T18:38:21.253Z,77.67
2022-12-15T18:40:28.002Z,77.44
2022-12-15T18:42:30.598Z,77.34
2022-12-15T18:44:34.545Z,77.26
2022-12-15T18:46:37.131Z,77.11
2022-12-15T18:48:40.180Z,76.90
2022-12-15T18:50:42.893Z,76.81
2022-12-15T18:52:49.564Z,77.56
2022-12-15T18:54:54.221Z,76.72
2022-12-15T18:56:56.891Z,77.39
2022-12-15T18:58:59.459Z,77.52
2022-12-15T19:01:04.944Z,77.09
2022-12-15T19:03:07.723Z,77.05
2022-12-15T19:05:27.125Z,77.39
2022-12-15T19:07:29.830Z,77.00
2022-12-15T19:09:32.446Z,76.89
2022-12-15T19:11:35.025Z,76.98
2022-12-15T19:13:39.380Z,76.86
2022-12-15T19:15:42.313Z,76.91
2022-12-15T19:18:04.148Z,76.95
2022-12-15T19:20:32.763Z,76.76
2022-12-15T19:22:35.448Z,77.41
2022-12-15T19:24:56.501Z,77.00
2022-12-15T19:26:59.036Z,77.10
2022-12-15T19:29:01.683Z,76.89
2022-12-15T19:31:04.271Z,77.01
2022-12-15T19:33:08.254Z,76.59
2022-12-15T19:35:11.765Z,76.44
2022-12-15T19:37:23.423Z,76.36
2022-12-15T19:39:26.074Z,76.59
2022-12-15T19:41:28.622Z,76.01
2022-12-15T19:43:31.675Z,76.63
2022-12-15T19:45:34.822Z,76.14
2022-12-15T19:47:37.438Z,76.25
2022-12-15T19:49:41.635Z,77.13
2022-12-15T19:51:44.441Z,76.35
2022-12-15T19:53:48.736Z,76.66
2022-12-15T19:55:52.893Z,76.83
2022-12-15T19:57:55.465Z,76.34
2022-12-15T19:59:58.077Z,76.85
2022-12-15T20:02:00.849Z,76.76
2022-12-15T20:04:03.680Z,76.99
2022-12-15T20:06:14.624Z,76.45
2022-12-15T20:08:22.454Z,76.40
2022-12-15T20:10:32.259Z,76.46
2022-12-15T20:12:35.636Z,76.35
2022-12-15T20:14:38.469Z,76.21
2022-12-15T20:16:41.359Z,76.44
2022-12-15T20:18:45.115Z,76.31
2022-12-15T20:20:49.975Z,76.01
2022-12-15T20:22:56.128Z,76.11
2022-12-15T20:24:58.771Z,76.67
2022-12-15T20:27:01.320Z,75.71
2022-12-15T20:29:04.565Z,76.39
2022-12-15T20:31:07.340Z,76.06
2022-12-15T20:33:11.714Z,76.25
2022-12-15T20:35:16.224Z,76.05
2022-12-15T20:37:21.626Z,76.51
2022-12-15T20:39:29.269Z,76.10
2022-12-15T20:41:32.075Z,76.18
2022-12-15T20:43:35.576Z,75.98
2022-12-15T20:45:38.837Z,76.12
2022-12-15T20:47:43.334Z,76.07
2022-12-15T20:49:45.968Z,76.16
2022-12-15T20:51:50.683Z,76.18
2022-12-15T20:53:55.792Z,76.04
2022-12-15T20:56:00.037Z,75.90
2022-12-15T20:58:02.745Z,75.62
2022-12-15T21:00:06.719Z,76.05
2022-12-15T21:02:18.860Z,75.67
2022-12-15T21:04:25.981Z,75.59
2022-12-15T21:06:29.532Z,75.47
2022-12-15T21:08:33.102Z,75.92
2022-12-15T21:10:35.630Z,75.18
2022-12-15T21:12:39.509Z,76.32
2022-12-15T21:14:42.160Z,76.04
2022-12-15T21:16:44.839Z,75.86
2022-12-15T21:21:18.918Z,76.10
2022-12-15T21:23:24.669Z,75.85
2022-12-15T21:25:27.625Z,76.13
2022-12-15T21:27:30.248Z,75.69
2022-12-15T21:29:35.243Z,76.11
2022-12-15T21:31:37.790Z,76.25
2022-12-15T21:33:40.806Z,76.68
2022-12-15T21:35:46.056Z,75.74
2022-12-15T21:37:52.561Z,76.25
2022-12-15T21:39:59.369Z,75.95
2022-12-15T21:42:05.073Z,76.29
2022-12-15T21:44:13.726Z,75.49
2022-12-15T21:46:27.587Z,76.10
2022-12-15T21:48:48.060Z,76.31
2022-12-15T21:50:50.857Z,75.73
2022-12-15T21:52:54.633Z,76.42
2022-12-15T21:55:02.559Z,76.35
2022-12-15T21:57:05.157Z,76.50
2022-12-15T21:59:13.543Z,75.68
2022-12-15T22:01:21.740Z,76.69
2022-12-15T22:03:24.529Z,76.34
2022-12-15T22:05:30.213Z,76.26
2022-12-15T22:07:32.784Z,75.97
2022-12-15T22:09:35.342Z,76.30
2022-12-15T22:11:38.584Z,76.51
2022-12-15T22:13:41.143Z,75.96
2022-12-15T22:15:44.096Z,76.13
2022-12-15T22:17:48.338Z,76.29
2022-12-15T22:19:50.908Z,76.72
2022-12-15T22:21:54.736Z,75.99
2022-12-15T22:23:57.568Z,76.78
2022-12-15T22:26:00.231Z,76.80
2022-12-15T22:28:02.766Z,76.55
2022-12-15T22:30:19.328Z,76.45
2022-12-15T22:32:21.935Z,76.44
2022-12-15T22:34:28.145Z,76.91
2022-12-15T22:36:33.544Z,76.75
2022-12-15T22:38:36.301Z,76.84
2022-12-15T22:40:42.138Z,76.62
2022-12-15T22:42:50.262Z,76.60
2022-12-15T22:44:54.856Z,76.55
2022-12-15T22:47:00.695Z,76.39
2022-12-15T22:49:03.425Z,77.53
2022-12-15T22:51:07.869Z,76.51
2022-12-15T22:53:13.778Z,76.20
2022-12-15T22:55:17.648Z,76.67
2022-12-15T22:57:23.242Z,76.03
2022-12-15T22:59:28.495Z,76.32
2022-12-15T23:01:31.219Z,76.28
2022-12-15T23:03:34.677Z,76.08
2022-12-15T23:05:40.533Z,76.25
2022-12-15T23:07:45.246Z,75.64
2022-12-15T23:09:47.803Z,75.19
2022-12-15T23:11:49.441Z,75.17
2022-12-15T23:13:51.861Z,75.44
2022-12-15T23:16:12.395Z,75.13
2022-12-15T23:18:15.437Z,74.97
2022-12-15T23:20:18.140Z,75.75
2022-12-15T23:22:20.906Z,75.12
2022-12-15T23:24:24.817Z,74.93
2022-12-15T23:26:27.811Z,75.22
2022-12-15T23:28:30.725Z,75.17
2022-12-15T23:30:33.340Z,75.11
2022-12-15T23:32:38.634Z,75.64
2022-12-15T23:34:43.683Z,75.34
2022-12-15T23:36:46.668Z,75.19
2022-12-15T23:38:49.281Z,75.53
2022-12-15T23:40:55.409Z,74.54
2022-12-15T23:42:58.034Z,74.85
2022-12-15T23:45:00.857Z,75.05
2022-12-15T23:47:03.553Z,74.63
2022-12-15T23:49:06.788Z,74.45
2022-12-15T23:51:11.247Z,74.41
2022-12-15T23:53:13.886Z,74.93
2022-12-15T23:55:16.642Z,75.01
2022-12-15T23:57:20.564Z,74.87
2022-12-15T23:59:23.125Z,74.69
